createdAt,value
2023-05-18T00:02:54.344Z,29.10
2023-05-18T00:06:04.620Z,2.05
2023-05-18T00:09:12.552Z,3.13
2023-05-18T00:12:20.724Z,5.90
2023-05-18T00:15:28.650Z,1.77
2023-05-18T00:18:38.314Z,6.05
2023-05-18T00:21:47.175Z,3.42
2023-05-18T00:24:55.210Z,1.88
2023-05-18T00:28:03.338Z,5.00
2023-05-18T00:31:11.336Z,3.80
2023-05-18T00:34:20.646Z,5.35
2023-05-18T00:37:28.679Z,3.13
2023-05-18T00:40:36.541Z,3.67
2023-05-18T00:43:44.521Z,2.70
2023-05-18T00:46:52.915Z,3.05
2023-05-18T00:50:02.434Z,3.13
2023-05-18T00:53:11.578Z,1.77
2023-05-18T00:56:19.660Z,2.33
2023-05-18T00:59:29.554Z,4.95
2023-05-18T01:02:42.522Z,3.85
2023-05-18T01:05:55.641Z,2.50
2023-05-18T01:12:22.788Z,4.03
2023-05-18T01:15:33.676Z,3.35
2023-05-18T01:18:45.673Z,3.88
2023-05-18T01:21:58.646Z,3.78
2023-05-18T01:25:14.692Z,4.38
2023-05-18T01:28:26.403Z,4.50
2023-05-18T01:31:35.210Z,4.15
2023-05-18T01:34:44.087Z,1.98
2023-05-18T01:37:52.178Z,3.38
2023-05-18T01:41:03.359Z,2.60
2023-05-18T01:44:15.858Z,3.28
2023-05-18T01:47:23.843Z,2.13
2023-05-18T01:50:37.757Z,2.92
2023-05-18T01:53:47.724Z,2.97
2023-05-18T01:56:56.049Z,3.45
2023-05-18T02:00:10.064Z,5.65
2023-05-18T02:03:23.974Z,3.22
2023-05-18T02:06:31.980Z,2.72
2023-05-18T02:09:39.811Z,4.07
2023-05-18T02:12:49.113Z,2.75
2023-05-18T02:15:58.740Z,2.38
2023-05-18T02:19:07.191Z,3.65
2023-05-18T02:22:15.115Z,5.35
2023-05-18T02:25:22.873Z,4.95
2023-05-18T02:28:30.857Z,2.40
2023-05-18T02:31:40.250Z,4.50
2023-05-18T02:34:50.152Z,5.57
2023-05-18T02:37:58.280Z,4.70
2023-05-18T02:41:06.893Z,9.27
2023-05-18T02:44:15.029Z,3.15
2023-05-18T02:47:25.019Z,3.35
2023-05-18T02:50:32.978Z,2.50
2023-05-18T02:53:40.986Z,5.00
2023-05-18T02:56:56.775Z,4.82
2023-05-18T03:00:18.206Z,3.92
2023-05-18T03:03:28.382Z,4.32
2023-05-18T03:06:38.319Z,3.00
2023-05-18T03:09:46.384Z,3.00
2023-05-18T03:12:54.745Z,4.95
2023-05-18T03:16:03.255Z,4.32
2023-05-18T03:19:14.354Z,2.58
2023-05-18T03:22:22.849Z,2.17
2023-05-18T03:25:32.787Z,3.13
2023-05-18T03:28:42.504Z,4.35
2023-05-18T03:31:50.434Z,3.67
2023-05-18T03:35:01.023Z,4.75
2023-05-18T03:38:09.606Z,3.35
2023-05-18T03:41:20.246Z,7.80
2023-05-18T03:44:28.453Z,91.15
2023-05-18T03:47:37.126Z,381.73
2023-05-18T03:50:46.976Z,292.30
2023-05-18T03:53:55.964Z,210.60
2023-05-18T03:57:03.839Z,86.85
2023-05-18T04:00:13.569Z,130.02
2023-05-18T04:03:28.141Z,3.83
2023-05-18T04:06:40.087Z,4.50
2023-05-18T04:09:48.906Z,241.23
2023-05-18T04:12:56.740Z,337.65
2023-05-18T04:16:05.173Z,196.60
2023-05-18T04:19:13.659Z,2.85
2023-05-18T04:22:23.117Z,3.03
2023-05-18T04:25:31.548Z,4.90
2023-05-18T04:28:40.160Z,3.45
2023-05-18T04:31:48.846Z,3.47
2023-05-18T04:34:58.481Z,3.53
2023-05-18T04:38:08.273Z,3.72
2023-05-18T04:41:20.604Z,5.03
2023-05-18T04:44:29.797Z,8.95
2023-05-18T04:47:40.879Z,9.93
2023-05-18T04:50:48.737Z,4.43
2023-05-18T04:53:57.947Z,3.97
2023-05-18T04:57:07.078Z,3.15
2023-05-18T05:00:16.113Z,10.05
2023-05-18T05:03:24.108Z,3.63
2023-05-18T05:06:32.130Z,4.05
2023-05-18T05:09:41.296Z,5.63
2023-05-18T05:12:50.060Z,3.00
2023-05-18T05:15:58.014Z,6.47
2023-05-18T05:19:07.194Z,2.22
2023-05-18T05:22:16.023Z,4.38
2023-05-18T05:25:25.605Z,7.97
2023-05-18T05:28:33.642Z,5.75
2023-05-18T05:31:41.705Z,6.15
2023-05-18T05:34:51.682Z,25.75
2023-05-18T05:38:01.248Z,4.57
2023-05-18T05:41:10.743Z,4.10
2023-05-18T05:44:19.180Z,3.70
2023-05-18T05:47:28.094Z,3.10
2023-05-18T05:50:35.860Z,2.67
2023-05-18T05:53:47.476Z,3.78
2023-05-18T05:56:58.758Z,6.40
2023-05-18T06:00:10.371Z,2.35
2023-05-18T06:03:29.358Z,3.67
2023-05-18T06:06:40.794Z,3.25
2023-05-18T06:09:50.238Z,3.30
2023-05-18T06:13:00.650Z,4.95
2023-05-18T06:16:21.988Z,3.25
2023-05-18T06:19:29.961Z,6.53
2023-05-18T06:22:37.918Z,3.78
2023-05-18T06:25:57.754Z,2.88
2023-05-18T06:29:30.611Z,4.68
2023-05-18T06:32:48.801Z,3.50
2023-05-18T06:35:57.195Z,3.90
2023-05-18T06:39:05.647Z,3.88
2023-05-18T06:42:13.588Z,2.55
2023-05-18T06:45:36.161Z,5.95
2023-05-18T06:49:11.209Z,5.35
2023-05-18T06:52:19.340Z,3.00
2023-05-18T06:55:27.619Z,4.70
2023-05-18T06:58:36.232Z,16.65
2023-05-18T07:01:47.846Z,2.67
2023-05-18T07:04:57.983Z,14.60
2023-05-18T07:08:07.221Z,3.60
2023-05-18T07:11:15.678Z,3.25
2023-05-18T07:14:23.910Z,5.30
2023-05-18T07:17:33.350Z,3.20
2023-05-18T07:20:41.190Z,2.60
2023-05-18T07:23:49.068Z,3.22
2023-05-18T07:26:58.299Z,3.95
2023-05-18T07:30:09.319Z,2.95
2023-05-18T07:33:18.799Z,3.47
2023-05-18T07:36:28.548Z,3.15
2023-05-18T07:39:36.309Z,4.70
2023-05-18T07:42:45.428Z,3.03
2023-05-18T07:45:53.508Z,51.78
2023-05-18T07:49:02.901Z,754.20
2023-05-18T07:52:10.989Z,3.72
2023-05-18T07:55:18.823Z,24.77
2023-05-18T07:58:26.676Z,105.72
2023-05-18T08:01:35.241Z,398.17
2023-05-18T08:04:44.615Z,291.17
2023-05-18T08:07:52.621Z,4.32
2023-05-18T08:11:00.581Z,435.55
2023-05-18T08:14:08.578Z,232.23
2023-05-18T08:17:16.331Z,165.68
2023-05-18T08:20:25.639Z,325.90
2023-05-18T08:23:33.541Z,804.65
2023-05-18T08:26:41.727Z,573.33
2023-05-18T08:29:49.942Z,978.90
2023-05-18T08:32:57.892Z,646.35
2023-05-18T08:36:08.022Z,453.40
2023-05-18T08:39:16.180Z,700.90
2023-05-18T08:42:29.588Z,315.48
2023-05-18T08:45:45.420Z,49.70
2023-05-18T08:48:54.387Z,145.25
2023-05-18T08:52:05.495Z,212.23
2023-05-18T08:55:13.925Z,140.68
2023-05-18T08:58:23.571Z,120.25
2023-05-18T09:01:31.490Z,264.65
2023-05-18T09:04:39.955Z,1004.80
2023-05-18T09:07:49.402Z,390.52
2023-05-18T09:10:58.409Z,114.75
2023-05-18T09:14:06.539Z,136.40
2023-05-18T09:17:14.492Z,29.52
2023-05-18T09:20:22.502Z,12.48
2023-05-18T09:23:32.149Z,43.97
2023-05-18T09:26:40.779Z,5.25
2023-05-18T09:29:55.012Z,3.88
2023-05-18T09:33:03.239Z,4.38
2023-05-18T09:36:12.144Z,2.80
2023-05-18T09:39:21.448Z,6.65
2023-05-18T09:42:35.959Z,5.30
2023-05-18T09:45:44.264Z,8.45
2023-05-18T09:48:52.878Z,5.03
2023-05-18T09:52:00.985Z,5.40
2023-05-18T09:55:11.223Z,4.35
2023-05-18T09:58:19.266Z,4.72
2023-05-18T10:01:27.189Z,2.55
2023-05-18T10:04:39.201Z,2.65
2023-05-18T10:07:48.484Z,4.45
2023-05-18T10:10:57.676Z,2.88
2023-05-18T10:14:05.599Z,2.70
2023-05-18T10:17:16.232Z,3.45
2023-05-18T10:20:26.855Z,4.03
2023-05-18T10:23:36.016Z,3.33
2023-05-18T10:26:45.228Z,3.20
2023-05-18T10:29:54.651Z,2.88
2023-05-18T10:33:03.026Z,2.55
2023-05-18T10:36:13.331Z,3.58
2023-05-18T10:39:21.078Z,5.22
2023-05-18T10:42:30.661Z,3.17
2023-05-18T10:45:38.696Z,6.03
2023-05-18T10:48:48.029Z,2.92
2023-05-18T10:51:56.264Z,2.90
2023-05-18T10:55:04.658Z,3.60
2023-05-18T10:58:15.789Z,4.18
2023-05-18T11:01:23.673Z,4.65
2023-05-18T11:04:32.000Z,3.95
2023-05-18T11:07:40.287Z,2.40
2023-05-18T11:10:48.275Z,3.40
2023-05-18T11:14:01.346Z,2.75
2023-05-18T11:17:22.273Z,3.92
2023-05-18T11:20:30.243Z,2.00
2023-05-18T11:23:38.100Z,4.28
2023-05-18T11:26:48.093Z,3.53
2023-05-18T11:30:11.633Z,2.83
2023-05-18T11:33:28.250Z,3.33
2023-05-18T11:39:59.674Z,12.45
2023-05-18T11:43:08.639Z,8.63
2023-05-18T11:46:20.628Z,9.00
2023-05-18T11:49:30.925Z,6.80
2023-05-18T11:52:46.487Z,8.40
2023-05-18T11:55:54.820Z,6.82
2023-05-18T11:59:15.968Z,7.93
2023-05-18T12:02:26.806Z,93.78
2023-05-18T12:05:35.683Z,237.82
2023-05-18T12:08:44.721Z,49.13
2023-05-18T12:11:52.817Z,174.63
2023-05-18T12:15:01.440Z,108.00
2023-05-18T12:18:11.467Z,2.80
2023-05-18T12:21:22.786Z,3.30
2023-05-18T12:24:30.585Z,9.55
2023-05-18T12:27:40.003Z,68.25
2023-05-18T12:30:47.981Z,134.25
2023-05-18T12:33:59.198Z,985.78
2023-05-18T12:37:07.779Z,23.88
2023-05-18T12:40:17.336Z,7.65
2023-05-18T12:43:26.514Z,52.10
2023-05-18T12:46:34.904Z,81.90
2023-05-18T12:49:44.874Z,32.90
2023-05-18T12:52:52.717Z,3.22
2023-05-18T12:56:01.603Z,19.70
2023-05-18T12:59:09.681Z,705.47
2023-05-18T13:02:31.512Z,5.82
2023-05-18T13:05:41.856Z,23.80
2023-05-18T13:08:49.763Z,26.48
2023-05-18T13:12:07.257Z,6.85
2023-05-18T13:15:17.229Z,3.28
2023-05-18T13:18:25.493Z,4.32
2023-05-18T13:21:35.619Z,3.80
2023-05-18T13:24:46.588Z,3.92
2023-05-18T13:27:54.900Z,7.93
2023-05-18T13:31:03.096Z,3.42
2023-05-18T13:34:11.427Z,5.55
2023-05-18T13:37:21.235Z,2.33
2023-05-18T13:40:29.443Z,2.25
2023-05-18T13:43:37.334Z,1.90
2023-05-18T13:46:45.310Z,3.33
2023-05-18T13:49:53.138Z,2.30
2023-05-18T13:53:02.643Z,2.60
2023-05-18T13:56:10.726Z,4.50
2023-05-18T13:59:19.516Z,2.55
2023-05-18T14:02:27.733Z,3.22
2023-05-18T14:05:35.536Z,9.40
2023-05-18T14:08:44.696Z,27.88
2023-05-18T14:11:53.908Z,44.83
2023-05-18T14:15:02.251Z,3.63
2023-05-18T14:18:10.216Z,2.83
2023-05-18T14:21:18.449Z,2.50
2023-05-18T14:24:27.680Z,3.40
2023-05-18T14:27:35.907Z,2.53
2023-05-18T14:30:43.931Z,2.97
2023-05-18T14:33:51.798Z,3.65
2023-05-18T14:36:59.711Z,4.07
2023-05-18T14:40:10.722Z,2.92
2023-05-18T14:43:18.544Z,3.45
2023-05-18T14:46:26.670Z,3.88
2023-05-18T14:49:34.781Z,2.58
2023-05-18T14:52:42.429Z,1.63
2023-05-18T14:55:51.631Z,3.15
2023-05-18T14:58:59.405Z,20.60
2023-05-18T15:02:08.596Z,2.35
2023-05-18T15:05:16.517Z,2.63
2023-05-18T15:08:24.416Z,1.85
2023-05-18T15:11:33.517Z,4.13
2023-05-18T15:14:41.467Z,2.72
2023-05-18T15:17:49.454Z,2.95
2023-05-18T15:20:57.303Z,3.03
2023-05-18T15:24:05.745Z,2.63
2023-05-18T15:27:15.106Z,319.33
2023-05-18T15:30:23.463Z,966.40
2023-05-18T15:33:31.817Z,157.48
2023-05-18T15:36:39.853Z,103.35
2023-05-18T15:39:48.146Z,24.65
2023-05-18T15:42:57.592Z,74.70
2023-05-18T15:46:05.624Z,141.65
2023-05-18T15:49:13.593Z,1.50
2023-05-18T15:52:21.498Z,3.17
2023-05-18T15:55:29.418Z,3.28
2023-05-18T15:58:38.630Z,4.25
2023-05-18T16:01:46.556Z,29.73
2023-05-18T16:04:54.418Z,71.55
2023-05-18T16:08:02.575Z,8.05
2023-05-18T16:11:10.689Z,36.00
2023-05-18T16:14:19.802Z,26.33
2023-05-18T16:17:27.712Z,22.13
2023-05-18T16:20:35.763Z,6.05
2023-05-18T16:23:43.717Z,5.13
2023-05-18T16:26:51.843Z,29.90
2023-05-18T16:30:01.376Z,6.75
2023-05-18T16:33:09.193Z,7.38
2023-05-18T16:36:17.195Z,4.47
2023-05-18T16:39:27.171Z,13.77
2023-05-18T16:42:35.196Z,9.68
2023-05-18T16:45:44.563Z,42.38
2023-05-18T16:48:52.778Z,41.17
2023-05-18T16:52:00.973Z,42.38
2023-05-18T16:55:09.868Z,51.03
2023-05-18T16:58:17.946Z,18.80
2023-05-18T17:01:28.929Z,8.98
2023-05-18T17:04:37.231Z,9.18
2023-05-18T17:07:45.439Z,195.35
2023-05-18T17:10:53.540Z,205.20
2023-05-18T17:14:01.770Z,120.47
2023-05-18T17:17:11.258Z,38.70
2023-05-18T17:20:19.181Z,16.70
2023-05-18T17:23:27.237Z,16.23
2023-05-18T17:26:35.121Z,163.77
2023-05-18T17:29:43.248Z,265.23
2023-05-18T17:32:52.694Z,426.55
2023-05-18T17:36:00.689Z,297.45
2023-05-18T17:39:08.629Z,371.60
2023-05-18T17:42:16.377Z,398.25
2023-05-18T17:45:24.430Z,350.67
2023-05-18T17:48:33.698Z,488.27
2023-05-18T17:51:41.398Z,625.47
2023-05-18T17:54:52.161Z,629.13
2023-05-18T17:58:02.372Z,486.05
2023-05-18T18:01:10.614Z,326.30
2023-05-18T18:04:20.182Z,309.02
2023-05-18T18:07:28.534Z,130.55
2023-05-18T18:10:36.551Z,219.68
2023-05-18T18:13:44.572Z,216.48
2023-05-18T18:16:52.935Z,325.10
2023-05-18T18:20:02.413Z,36.30
2023-05-18T18:23:10.312Z,8.95
2023-05-18T18:26:18.799Z,11.23
2023-05-18T18:29:29.722Z,6.05
2023-05-18T18:32:37.822Z,6.45
2023-05-18T18:35:47.343Z,8.15
2023-05-18T18:38:55.290Z,10.75
2023-05-18T18:42:03.124Z,8.60
2023-05-18T18:45:12.118Z,6.32
2023-05-18T18:48:21.383Z,7.40
2023-05-18T18:51:31.233Z,11.50
2023-05-18T18:54:39.265Z,7.15
2023-05-18T18:57:47.266Z,7.57
2023-05-18T19:00:55.135Z,11.60
2023-05-18T19:04:03.249Z,8.68
2023-05-18T19:07:12.586Z,11.27
2023-05-18T19:10:20.699Z,7.95
2023-05-18T19:13:28.603Z,6.03
2023-05-18T19:16:36.696Z,14.48
2023-05-18T19:19:44.685Z,7.32
2023-05-18T19:22:54.178Z,7.25
2023-05-18T19:26:02.452Z,12.63
2023-05-18T19:29:10.359Z,5.90
2023-05-18T19:32:18.322Z,9.02
2023-05-18T19:35:26.231Z,8.48
2023-05-18T19:38:35.408Z,6.03
2023-05-18T19:41:43.417Z,11.52
2023-05-18T19:44:51.266Z,13.73
2023-05-18T19:47:59.427Z,16.35
2023-05-18T19:51:07.723Z,11.27
2023-05-18T19:54:17.107Z,7.50
2023-05-18T19:57:26.408Z,5.28
2023-05-18T20:00:34.250Z,7.03
2023-05-18T20:03:43.462Z,11.55
2023-05-18T20:06:52.036Z,9.75
2023-05-18T20:10:01.631Z,9.18
2023-05-18T20:13:09.644Z,13.25
2023-05-18T20:16:18.550Z,9.60
2023-05-18T20:19:27.588Z,8.73
2023-05-18T20:22:35.755Z,6.03
2023-05-18T20:25:48.003Z,7.53
2023-05-18T20:28:55.850Z,8.93
2023-05-18T20:32:03.704Z,7.88
2023-05-18T20:35:12.728Z,10.75
2023-05-18T20:38:20.670Z,91.20
2023-05-18T20:41:30.093Z,168.05
2023-05-18T20:44:38.385Z,313.98
2023-05-18T20:47:47.355Z,668.33
2023-05-18T20:50:55.291Z,9.15
2023-05-18T20:54:03.140Z,6.53
2023-05-18T20:57:12.493Z,5.20
2023-05-18T21:00:21.615Z,10.07
2023-05-18T21:03:30.406Z,10.52
2023-05-18T21:06:40.536Z,4.90
2023-05-18T21:09:48.952Z,284.05
2023-05-18T21:12:58.333Z,327.85
2023-05-18T21:16:08.441Z,329.42
2023-05-18T21:19:17.267Z,372.83
2023-05-18T21:22:25.430Z,390.17
2023-05-18T21:25:33.536Z,446.27
2023-05-18T21:28:43.124Z,561.20
2023-05-18T21:31:51.082Z,697.65
2023-05-18T21:34:59.359Z,891.55
2023-05-18T21:38:07.342Z,980.28
2023-05-18T21:41:15.293Z,960.35
2023-05-18T21:44:24.594Z,985.38
2023-05-18T21:47:32.744Z,783.40
2023-05-18T21:50:40.646Z,822.78
2023-05-18T21:53:48.521Z,970.33
2023-05-18T21:56:56.353Z,919.33
2023-05-18T22:00:06.348Z,915.35
2023-05-18T22:03:21.708Z,851.53
2023-05-18T22:06:29.816Z,719.67
2023-05-18T22:09:37.638Z,786.22
2023-05-18T22:12:45.963Z,569.78
2023-05-18T22:15:55.271Z,504.35
2023-05-18T22:19:03.430Z,541.63
2023-05-18T22:22:16.519Z,585.28
2023-05-18T22:25:31.358Z,679.03
2023-05-18T22:28:39.389Z,776.05
2023-05-18T22:31:48.650Z,719.13
2023-05-18T22:34:56.981Z,494.67
2023-05-18T22:38:05.009Z,491.58
2023-05-18T22:41:12.883Z,391.90
2023-05-18T22:44:20.848Z,393.17
2023-05-18T22:47:30.600Z,403.40
2023-05-18T22:50:38.494Z,339.48
2023-05-18T22:53:46.466Z,355.38
2023-05-18T22:56:54.392Z,307.83
2023-05-18T23:00:02.195Z,317.45
2023-05-18T23:03:11.441Z,270.73
2023-05-18T23:06:22.357Z,274.85
2023-05-18T23:09:30.704Z,237.82
2023-05-18T23:12:39.529Z,242.45
2023-05-18T23:15:47.916Z,203.68
2023-05-18T23:18:58.635Z,224.18
2023-05-18T23:22:06.830Z,186.98
2023-05-18T23:25:14.695Z,236.20
2023-05-18T23:28:22.894Z,208.68
2023-05-18T23:31:31.379Z,161.20
2023-05-18T23:34:41.392Z,195.95
2023-05-18T23:37:50.177Z,171.82
2023-05-18T23:40:58.537Z,160.52
2023-05-18T23:44:07.822Z,196.55
2023-05-18T23:47:16.555Z,244.80
2023-05-18T23:50:26.501Z,245.90
2023-05-18T23:53:34.790Z,231.68
2023-05-18T23:56:43.436Z,196.50
2023-05-18T23:59:51.904Z,226.60
